This is the latest recevied weather packets stored in our database for station/object 9W2YIE-13. If no packets are shown the sender has not sent any weather packets the latest 10 day(s).
| Time | Temp. | Humidity | Pressure | Rain* | Wind** | Luminosity | Snow |
|---|---|---|---|---|---|---|---|
| 1787780485 | 40.56° C | 38% | 1007 hPa | - | - | 0 W/m² | - |
| 1787779548 | 41.11° C | 38% | 1007 hPa | - | - | 0 W/m² | - |
| 1787778596 | 41.11° C | 38% | 1007 hPa | - | - | 0 W/m² | - |
| 1787777647 | 41.11° C | 38% | 1007 hPa | - | - | 0 W/m² | - |
| 1787776688 | 40.56° C | 38% | 1007 hPa | - | - | 0 W/m² | - |
| 1787775716 | 40.56° C | 39% | 1007 hPa | - | - | 0 W/m² | - |
| 1787774775 | 40° C | 40% | 1007 hPa | - | - | 0 W/m² | - |
| 1787773844 | 39.44° C | 41% | 1007 hPa | - | - | 0 W/m² | - |
| 1787772915 | 41.67° C | 37% | 1007 hPa | - | - | 0 W/m² | - |
| 1787771986 | 41.67° C | 36% | 1007 hPa | - | - | 0 W/m² | - |
| 1787771054 | 41.11° C | 37% | 1007 hPa | - | - | 0 W/m² | - |
| 1787770129 | 42.22° C | 36% | 1007 hPa | - | - | 0 W/m² | - |
| 1787769203 | 41.67° C | 36% | 1008 hPa | - | - | 0 W/m² | - |
| 1787768273 | 42.22° C | 36% | 1008 hPa | - | - | 0 W/m² | - |
| 1787767347 | 41.67° C | 36% | 1008 hPa | - | - | 0 W/m² | - |
| 1787766420 | 41.67° C | 36% | 1008 hPa | - | - | 0 W/m² | - |
| 1787765490 | 42.78° C | 35% | 1008 hPa | - | - | 0 W/m² | - |
| 1787764560 | 41.67° C | 36% | 1008 hPa | - | - | 0 W/m² | - |
| 1787763631 | 41.67° C | 37% | 1008 hPa | - | - | 0 W/m² | - |
| 1787762666 | 39.44° C | 41% | 1009 hPa | - | - | 0 W/m² | - |
| 1787762543 | 39.44° C | 40% | 1009 hPa | - | - | 0 W/m² | - |
| 1787761581 | 41.11° C | 37% | 1008 hPa | - | - | 0 W/m² | - |
| 1787760637 | 41.11° C | 38% | 1009 hPa | - | - | 0 W/m² | - |
| 1787759704 | 42.78° C | 35% | 1009 hPa | - | - | 0 W/m² | - |
| 1787758776 | 41.67° C | 36% | 1009 hPa | - | - | 0 W/m² | - |
* Rain since midnight (hover to see other rain measurements)
** Current wind speed in m/s (hover to see current wind gust speed)